createdAt,value
2019-03-27T00:02:08.207Z,6.22
2019-03-27T00:04:38.028Z,6.24
2019-03-27T00:07:07.683Z,6.24
2019-03-27T00:09:38.062Z,6.24
2019-03-27T00:12:07.674Z,6.24
2019-03-27T00:14:38.413Z,6.26
2019-03-27T00:17:08.055Z,6.26
2019-03-27T00:19:37.963Z,6.25
2019-03-27T00:22:07.534Z,6.26
2019-03-27T00:24:37.497Z,6.25
2019-03-27T00:27:08.168Z,6.25
2019-03-27T00:29:37.688Z,6.22
2019-03-27T00:32:08.578Z,6.20
2019-03-27T00:34:38.544Z,6.18
2019-03-27T00:37:09.001Z,6.15
2019-03-27T00:39:38.733Z,6.18
2019-03-27T00:42:08.623Z,6.18
2019-03-27T00:44:38.496Z,6.20
2019-03-27T00:47:08.469Z,6.21
2019-03-27T00:49:39.638Z,6.23
2019-03-27T00:52:09.952Z,6.23
2019-03-27T00:54:39.565Z,6.24
2019-03-27T00:57:09.408Z,6.25
2019-03-27T00:59:38.999Z,6.26
2019-03-27T01:02:08.928Z,6.27
2019-03-27T01:04:38.436Z,6.27
2019-03-27T01:07:08.329Z,6.28
2019-03-27T01:09:38.225Z,6.30
2019-03-27T01:12:07.745Z,6.29
2019-03-27T01:14:37.345Z,6.29
2019-03-27T01:17:07.599Z,6.30
2019-03-27T01:19:37.573Z,6.30
2019-03-27T01:22:07.610Z,6.29
2019-03-27T01:24:37.278Z,6.28
2019-03-27T01:27:07.551Z,6.28
2019-03-27T01:29:37.481Z,6.27
2019-03-27T01:32:08.958Z,6.25
2019-03-27T01:34:38.494Z,6.25
2019-03-27T01:37:08.024Z,6.23
2019-03-27T01:39:37.741Z,6.25
2019-03-27T01:42:07.462Z,6.24
2019-03-27T01:44:37.582Z,6.25
2019-03-27T01:47:07.161Z,6.24
2019-03-27T01:49:37.201Z,6.24
2019-03-27T01:52:08.179Z,6.21
2019-03-27T01:54:38.665Z,6.23
2019-03-27T01:57:08.193Z,6.24
2019-03-27T01:59:37.771Z,6.26
2019-03-27T02:02:07.308Z,6.26
2019-03-27T02:04:36.884Z,6.27
2019-03-27T02:07:07.231Z,6.26
2019-03-27T02:09:37.085Z,6.27
2019-03-27T02:12:07.148Z,6.26
2019-03-27T02:14:36.954Z,6.25
2019-03-27T02:17:06.678Z,6.25
2019-03-27T02:19:36.968Z,6.23
2019-03-27T02:22:08.255Z,6.23
2019-03-27T02:24:37.913Z,6.23
2019-03-27T02:27:37.164Z,6.23
2019-03-27T02:30:08.366Z,6.23
2019-03-27T02:32:38.241Z,6.21
2019-03-27T02:35:08.018Z,6.20
2019-03-27T02:37:37.634Z,6.20
2019-03-27T02:40:07.960Z,6.21
2019-03-27T02:42:37.992Z,6.23
2019-03-27T02:45:08.025Z,6.22
2019-03-27T02:47:37.545Z,6.23
2019-03-27T02:50:07.700Z,6.21
2019-03-27T02:52:37.483Z,6.23
2019-03-27T02:55:07.568Z,6.21
2019-03-27T02:57:37.254Z,6.21
2019-03-27T03:00:12.024Z,6.20
2019-03-27T03:02:41.733Z,6.20
2019-03-27T03:05:12.251Z,6.21
2019-03-27T03:07:42.088Z,6.23
2019-03-27T03:10:12.582Z,6.24
2019-03-27T03:12:42.101Z,6.23
2019-03-27T03:15:12.211Z,6.24
2019-03-27T03:17:42.323Z,6.25
2019-03-27T03:20:12.314Z,6.25
2019-03-27T03:22:41.963Z,6.25
2019-03-27T03:25:12.072Z,6.24
2019-03-27T03:27:41.701Z,6.24
2019-03-27T03:30:11.873Z,6.24
2019-03-27T03:32:41.723Z,6.23
2019-03-27T03:35:11.960Z,6.24
2019-03-27T03:37:42.049Z,6.26
2019-03-27T03:40:13.127Z,6.28
2019-03-27T03:42:43.041Z,6.28
2019-03-27T03:45:13.088Z,6.29
2019-03-27T03:47:43.094Z,6.31
2019-03-27T03:50:37.531Z,6.32
2019-03-27T03:53:12.771Z,6.31
2019-03-27T03:55:43.012Z,6.31
2019-03-27T03:58:17.047Z,6.32
2019-03-27T04:00:47.444Z,6.31
2019-03-27T04:03:17.141Z,6.32
2019-03-27T04:05:46.710Z,6.32
2019-03-27T04:08:17.277Z,6.31
2019-03-27T04:10:46.795Z,6.32
2019-03-27T04:13:16.698Z,6.32
2019-03-27T04:15:46.720Z,6.33
2019-03-27T04:18:16.604Z,6.35
2019-03-27T04:20:46.389Z,6.36
2019-03-27T04:23:16.509Z,6.36
2019-03-27T04:26:08.380Z,6.36
2019-03-27T04:28:18.223Z,6.36
2019-03-27T04:30:48.238Z,6.36
2019-03-27T04:33:18.317Z,6.37
2019-03-27T04:35:47.851Z,6.38
2019-03-27T04:38:17.540Z,6.39
2019-03-27T04:40:47.750Z,6.38
2019-03-27T04:43:17.311Z,6.40
2019-03-27T04:45:47.452Z,6.40
2019-03-27T04:48:17.003Z,6.39
2019-03-27T04:50:47.056Z,6.38
2019-03-27T04:53:16.814Z,6.38
2019-03-27T04:55:46.777Z,6.38
2019-03-27T04:58:16.630Z,6.38
2019-03-27T05:00:46.188Z,6.38
2019-03-27T05:03:15.851Z,6.38
2019-03-27T05:05:45.934Z,6.39
2019-03-27T05:08:16.031Z,6.39
2019-03-27T05:10:45.704Z,6.38
2019-03-27T05:13:15.565Z,6.38
2019-03-27T05:15:45.455Z,6.39
2019-03-27T05:18:15.239Z,6.38
2019-03-27T05:20:45.341Z,6.38
2019-03-27T05:23:15.283Z,6.39
2019-03-27T05:25:45.200Z,6.38
2019-03-27T05:28:14.738Z,6.39
2019-03-27T05:30:44.730Z,6.40
2019-03-27T05:33:14.836Z,6.42
2019-03-27T05:35:44.558Z,6.42
2019-03-27T05:38:13.988Z,6.42
2019-03-27T05:40:44.043Z,6.43
2019-03-27T05:43:13.999Z,6.44
2019-03-27T05:45:45.594Z,6.46
2019-03-27T05:48:15.576Z,6.49
2019-03-27T05:50:45.460Z,6.49
2019-03-27T05:53:15.852Z,6.52
2019-03-27T05:55:45.438Z,6.52
2019-03-27T05:58:15.944Z,6.54
2019-03-27T06:00:45.456Z,6.56
2019-03-27T06:03:18.108Z,6.58
2019-03-27T06:05:48.222Z,6.60
2019-03-27T06:08:18.475Z,6.60
2019-03-27T06:10:52.270Z,6.62
2019-03-27T06:13:22.633Z,6.65
2019-03-27T06:15:53.226Z,6.69
2019-03-27T06:18:25.431Z,6.73
2019-03-27T06:20:55.318Z,6.75
2019-03-27T06:23:26.960Z,6.80
2019-03-27T06:25:56.449Z,6.84
2019-03-27T06:28:27.174Z,6.89
2019-03-27T06:30:57.093Z,6.91
2019-03-27T06:33:27.448Z,6.93
2019-03-27T06:35:57.059Z,6.98
2019-03-27T06:38:27.147Z,7.06
2019-03-27T06:41:04.595Z,7.16
2019-03-27T06:43:35.384Z,7.20
2019-03-27T06:46:04.973Z,7.21
2019-03-27T06:48:35.330Z,7.23
2019-03-27T06:51:04.928Z,7.23
2019-03-27T06:53:35.046Z,7.27
2019-03-27T06:56:04.873Z,7.33
2019-03-27T06:58:34.856Z,7.34
2019-03-27T07:01:06.398Z,7.36
2019-03-27T07:03:35.984Z,7.38
2019-03-27T07:06:05.647Z,7.42
2019-03-27T07:08:36.197Z,7.46
2019-03-27T07:11:06.087Z,7.51
2019-03-27T07:13:35.909Z,7.58
2019-03-27T07:16:06.003Z,7.60
2019-03-27T07:18:40.254Z,7.68
2019-03-27T07:21:07.423Z,7.80
2019-03-27T07:23:37.321Z,7.89
2019-03-27T07:26:06.722Z,8.00
2019-03-27T07:28:36.509Z,8.14
2019-03-27T07:31:06.398Z,8.28
2019-03-27T07:33:36.528Z,8.34
2019-03-27T07:36:06.410Z,8.33
2019-03-27T07:38:38.964Z,8.31
2019-03-27T07:41:08.825Z,8.31
2019-03-27T07:43:38.318Z,8.34
2019-03-27T07:46:08.087Z,8.35
2019-03-27T07:48:38.260Z,8.33
2019-03-27T07:51:07.783Z,8.28
2019-03-27T07:53:40.798Z,8.21
2019-03-27T07:56:10.314Z,8.20
2019-03-27T07:58:40.028Z,8.25
2019-03-27T08:01:09.640Z,8.31
2019-03-27T08:03:40.642Z,8.42
2019-03-27T08:06:10.488Z,8.52
2019-03-27T08:08:40.035Z,8.64
2019-03-27T08:11:13.451Z,8.69
2019-03-27T08:13:43.401Z,8.76
2019-03-27T08:16:13.469Z,8.77
2019-03-27T08:18:42.848Z,8.76
2019-03-27T08:21:12.772Z,8.77
2019-03-27T08:23:42.260Z,8.79
2019-03-27T08:26:12.242Z,8.79
2019-03-27T08:28:42.824Z,8.79
2019-03-27T08:31:12.302Z,8.79
2019-03-27T08:33:41.677Z,8.78
2019-03-27T08:36:11.428Z,8.80
2019-03-27T08:38:40.847Z,8.82
2019-03-27T08:41:10.680Z,8.80
2019-03-27T08:43:40.613Z,8.77
2019-03-27T08:46:10.548Z,8.80
2019-03-27T08:48:40.336Z,8.83
2019-03-27T08:51:10.269Z,8.82
2019-03-27T08:53:39.993Z,8.91
2019-03-27T08:56:09.577Z,9.03
2019-03-27T08:58:39.569Z,9.10
2019-03-27T09:01:09.419Z,9.15
2019-03-27T09:03:39.288Z,9.18
2019-03-27T09:06:08.871Z,9.19
2019-03-27T09:08:38.839Z,9.22
2019-03-27T09:11:08.490Z,9.25
2019-03-27T09:13:38.500Z,9.27
2019-03-27T09:16:08.690Z,9.27
2019-03-27T09:18:38.693Z,9.28
2019-03-27T09:21:10.095Z,9.24
2019-03-27T09:23:41.065Z,9.20
2019-03-27T09:26:11.194Z,9.16
2019-03-27T09:28:40.599Z,9.09
2019-03-27T09:31:14.396Z,9.06
2019-03-27T09:33:44.205Z,9.06
2019-03-27T09:36:13.735Z,9.02
2019-03-27T09:38:46.274Z,8.98
2019-03-27T09:41:16.358Z,8.99
2019-03-27T09:43:45.882Z,8.97
2019-03-27T09:46:15.425Z,8.96
2019-03-27T09:48:45.246Z,8.98
2019-03-27T09:51:15.121Z,9.01
2019-03-27T09:53:45.244Z,9.05
2019-03-27T09:56:19.361Z,9.12
2019-03-27T09:58:46.075Z,9.19
2019-03-27T10:01:15.800Z,9.21
2019-03-27T10:03:45.315Z,9.16
2019-03-27T10:06:15.022Z,9.14
2019-03-27T10:08:44.359Z,9.13
2019-03-27T10:11:13.801Z,9.12
2019-03-27T10:13:43.700Z,9.10
2019-03-27T10:16:13.854Z,9.11
2019-03-27T10:18:47.600Z,9.11
2019-03-27T10:21:17.169Z,9.11
2019-03-27T10:23:47.113Z,9.13
2019-03-27T10:26:16.799Z,9.10
2019-03-27T10:28:46.771Z,9.09
2019-03-27T10:31:17.144Z,9.09
2019-03-27T10:33:46.886Z,9.05
2019-03-27T10:36:16.768Z,8.98
2019-03-27T10:38:47.339Z,8.96
2019-03-27T10:41:17.530Z,8.93
2019-03-27T10:43:48.306Z,8.93
2019-03-27T10:46:18.101Z,8.89
2019-03-27T10:48:52.795Z,8.90
2019-03-27T10:51:19.291Z,8.92
2019-03-27T10:53:48.907Z,8.93
2019-03-27T10:56:18.713Z,8.94
2019-03-27T10:58:48.220Z,8.94
2019-03-27T11:01:18.407Z,8.93
2019-03-27T11:03:47.936Z,8.89
2019-03-27T11:06:18.568Z,8.87
2019-03-27T11:08:48.155Z,8.83
2019-03-27T11:11:17.939Z,8.88
2019-03-27T11:13:47.880Z,8.91
2019-03-27T11:16:17.483Z,8.92
2019-03-27T11:18:47.166Z,8.94
2019-03-27T11:21:16.955Z,8.93
2019-03-27T11:23:46.556Z,8.87
2019-03-27T11:26:16.350Z,8.87
2019-03-27T11:28:45.894Z,8.87
2019-03-27T11:31:15.630Z,8.85
2019-03-27T11:33:45.393Z,8.86
2019-03-27T11:36:15.122Z,8.88
2019-03-27T11:38:44.890Z,8.90
2019-03-27T11:41:14.670Z,8.96
2019-03-27T11:43:54.181Z,8.95
2019-03-27T11:46:16.008Z,8.97
2019-03-27T11:48:46.038Z,8.94
2019-03-27T11:51:15.732Z,8.94
2019-03-27T11:53:45.238Z,8.93
2019-03-27T11:56:14.754Z,8.94
2019-03-27T11:58:46.735Z,8.95
2019-03-27T12:01:16.435Z,9.00
2019-03-27T12:03:46.407Z,9.02
2019-03-27T12:06:16.227Z,9.03
2019-03-27T12:08:45.952Z,9.05
2019-03-27T12:11:15.505Z,9.09
2019-03-27T12:13:45.252Z,9.14
2019-03-27T12:16:15.523Z,9.16
2019-03-27T12:18:47.156Z,9.16
2019-03-27T12:21:16.996Z,9.15
2019-03-27T12:23:46.953Z,9.17
2019-03-27T12:26:17.294Z,9.20
2019-03-27T12:28:47.744Z,9.23
2019-03-27T12:31:17.581Z,9.21
2019-03-27T12:33:47.365Z,9.21
2019-03-27T12:36:16.858Z,9.23
2019-03-27T12:38:46.699Z,9.21
2019-03-27T12:41:16.140Z,9.25
2019-03-27T12:43:45.837Z,9.27
2019-03-27T12:46:15.680Z,9.31
2019-03-27T12:48:45.039Z,9.35
2019-03-27T12:51:14.784Z,9.34
2019-03-27T12:53:44.604Z,9.33
2019-03-27T12:56:14.403Z,9.36
2019-03-27T12:58:44.157Z,9.36
2019-03-27T13:01:13.912Z,9.35
2019-03-27T13:03:44.622Z,9.34
2019-03-27T13:06:14.787Z,9.32
2019-03-27T13:08:44.563Z,9.30
2019-03-27T13:11:14.125Z,9.29
2019-03-27T13:13:45.942Z,9.23
2019-03-27T13:16:17.766Z,9.21
2019-03-27T13:18:50.304Z,9.21
2019-03-27T13:21:26.742Z,9.19
2019-03-27T13:23:57.934Z,9.13
2019-03-27T13:26:27.659Z,9.10
2019-03-27T13:28:57.230Z,9.11
2019-03-27T13:31:26.745Z,9.07
2019-03-27T13:33:56.572Z,9.08
2019-03-27T13:36:26.503Z,9.08
2019-03-27T13:38:56.200Z,9.06
2019-03-27T13:41:25.649Z,9.05
2019-03-27T13:43:55.749Z,9.06
2019-03-27T13:46:25.265Z,9.07
2019-03-27T13:48:54.878Z,9.05
2019-03-27T13:51:24.729Z,9.05
2019-03-27T13:53:55.857Z,9.07
2019-03-27T13:56:25.667Z,9.10
2019-03-27T13:58:55.367Z,9.13
2019-03-27T14:01:24.806Z,9.14
2019-03-27T14:03:54.620Z,9.14
2019-03-27T14:06:24.330Z,9.13
2019-03-27T14:08:53.866Z,9.12
2019-03-27T14:11:23.956Z,9.12
2019-03-27T14:13:53.472Z,9.12
2019-03-27T14:16:23.607Z,9.13
2019-03-27T14:18:53.306Z,9.14
2019-03-27T14:21:23.435Z,9.15
2019-03-27T14:23:53.133Z,9.13
2019-03-27T14:26:23.674Z,9.10
2019-03-27T14:28:53.314Z,9.09
2019-03-27T14:31:23.088Z,9.10
2019-03-27T14:33:52.824Z,9.13
2019-03-27T14:36:25.524Z,9.14
2019-03-27T14:38:56.753Z,9.13
2019-03-27T14:41:29.585Z,9.12
2019-03-27T14:44:00.028Z,9.09
2019-03-27T14:47:13.692Z,9.07
2019-03-27T14:50:00.496Z,9.02
2019-03-27T14:52:31.093Z,8.96
2019-03-27T14:55:03.299Z,8.91
2019-03-27T14:57:32.757Z,8.87
2019-03-27T15:00:02.613Z,8.86
2019-03-27T15:02:32.704Z,8.84
2019-03-27T15:05:03.389Z,8.83
2019-03-27T15:07:33.188Z,8.84
2019-03-27T15:10:03.123Z,8.84
2019-03-27T15:12:34.201Z,8.83
2019-03-27T15:15:04.321Z,8.83
2019-03-27T15:17:34.150Z,8.83
2019-03-27T15:20:04.405Z,8.83
2019-03-27T15:22:34.083Z,8.86
2019-03-27T15:25:04.084Z,8.88
2019-03-27T15:27:33.945Z,8.84
2019-03-27T15:30:03.595Z,8.84
2019-03-27T15:32:33.535Z,8.82
2019-03-27T15:35:03.718Z,8.79
2019-03-27T15:37:33.114Z,8.78
2019-03-27T15:40:02.600Z,8.78
2019-03-27T15:42:33.323Z,8.76
2019-03-27T15:45:03.372Z,8.74
2019-03-27T15:47:32.843Z,8.73
2019-03-27T15:50:02.481Z,8.72
2019-03-27T15:52:36.619Z,8.69
2019-03-27T15:55:05.985Z,8.69
2019-03-27T15:57:35.823Z,8.68
2019-03-27T16:00:06.537Z,8.65
2019-03-27T16:02:36.456Z,8.64
2019-03-27T16:05:06.987Z,8.65
2019-03-27T16:07:39.454Z,8.66
2019-03-27T16:10:10.528Z,8.64
2019-03-27T16:12:44.005Z,8.62
2019-03-27T16:15:14.353Z,8.61
2019-03-27T16:17:44.195Z,8.58
2019-03-27T16:20:14.137Z,8.57
2019-03-27T16:22:50.824Z,8.56
2019-03-27T16:25:30.144Z,8.52
2019-03-27T16:28:00.382Z,8.50
2019-03-27T16:30:30.015Z,8.49
2019-03-27T16:33:04.565Z,8.46
2019-03-27T16:35:34.438Z,8.43
2019-03-27T16:38:09.076Z,8.42
2019-03-27T16:40:46.368Z,8.41
2019-03-27T16:43:16.743Z,8.41
2019-03-27T16:45:46.879Z,8.40
2019-03-27T16:48:19.781Z,8.39
2019-03-27T16:50:49.628Z,8.37
2019-03-27T16:53:19.575Z,8.36
2019-03-27T16:55:49.529Z,8.35
2019-03-27T16:58:20.439Z,8.33
2019-03-27T17:00:50.149Z,8.31
2019-03-27T17:03:19.839Z,8.28
2019-03-27T17:05:54.084Z,8.25
2019-03-27T17:08:21.336Z,8.25
2019-03-27T17:10:51.050Z,8.25
2019-03-27T17:13:20.910Z,8.27
2019-03-27T17:15:51.577Z,8.26
2019-03-27T17:18:21.485Z,8.25
2019-03-27T17:20:51.001Z,8.23
2019-03-27T17:23:20.786Z,8.24
2019-03-27T17:25:50.362Z,8.22
2019-03-27T17:28:20.213Z,8.23
2019-03-27T17:30:49.967Z,8.23
2019-03-27T17:33:19.746Z,8.23
2019-03-27T17:35:49.405Z,8.23
2019-03-27T17:38:18.894Z,8.22
2019-03-27T17:40:48.713Z,8.22
2019-03-27T17:43:23.435Z,8.22
2019-03-27T17:45:53.172Z,8.22
2019-03-27T17:48:22.972Z,8.22
2019-03-27T17:50:52.781Z,8.21
2019-03-27T17:53:31.385Z,8.21
2019-03-27T17:55:54.159Z,8.22
2019-03-27T17:58:24.132Z,8.22
2019-03-27T18:00:55.542Z,8.22
2019-03-27T18:03:32.107Z,8.21
2019-03-27T18:06:01.727Z,8.21
2019-03-27T18:08:31.549Z,8.20
2019-03-27T18:11:01.424Z,8.22
2019-03-27T18:13:40.940Z,8.23
2019-03-27T18:16:11.098Z,8.22
2019-03-27T18:18:40.892Z,8.21
2019-03-27T18:21:12.955Z,8.21
2019-03-27T18:23:46.179Z,8.22
2019-03-27T18:26:14.549Z,8.24
2019-03-27T18:28:44.406Z,8.23
2019-03-27T18:31:14.176Z,8.22
2019-03-27T18:33:44.007Z,8.20
2019-03-27T18:36:13.969Z,8.19
2019-03-27T18:38:45.883Z,8.19
2019-03-27T18:41:16.011Z,8.16
2019-03-27T18:43:45.889Z,8.13
2019-03-27T18:46:15.883Z,8.14
2019-03-27T18:48:45.787Z,8.13
2019-03-27T18:51:16.036Z,8.14
2019-03-27T18:53:58.579Z,8.12
2019-03-27T18:56:17.034Z,8.11
2019-03-27T18:58:47.000Z,8.10
2019-03-27T19:01:17.131Z,8.08
2019-03-27T19:03:46.913Z,8.07
2019-03-27T19:06:16.691Z,8.03
2019-03-27T19:08:46.616Z,8.04
2019-03-27T19:11:16.107Z,8.03
2019-03-27T19:13:46.007Z,8.00
2019-03-27T19:16:15.707Z,8.01
2019-03-27T19:18:45.492Z,7.97
2019-03-27T19:21:15.168Z,7.98
2019-03-27T19:23:45.652Z,7.98
2019-03-27T19:26:15.556Z,7.96
2019-03-27T19:28:45.160Z,7.94
2019-03-27T19:31:14.733Z,7.93
2019-03-27T19:33:44.440Z,7.92
2019-03-27T19:36:16.782Z,7.90
2019-03-27T19:38:46.780Z,7.89
2019-03-27T19:41:16.598Z,7.90
2019-03-27T19:43:46.471Z,7.90
2019-03-27T19:46:16.309Z,7.89
2019-03-27T19:48:46.724Z,7.89
2019-03-27T19:51:16.780Z,7.89
2019-03-27T19:53:46.695Z,7.86
2019-03-27T19:56:16.480Z,7.89
2019-03-27T19:58:46.311Z,7.88
2019-03-27T20:01:19.087Z,7.86
2019-03-27T20:03:49.083Z,7.85
2019-03-27T20:06:22.852Z,7.85
2019-03-27T20:08:52.802Z,7.84
2019-03-27T20:11:22.425Z,7.83
2019-03-27T20:13:52.378Z,7.83
2019-03-27T20:16:22.117Z,7.82
2019-03-27T20:18:51.935Z,7.83
2019-03-27T20:21:21.483Z,7.82
2019-03-27T20:23:50.940Z,7.80
2019-03-27T20:26:20.353Z,7.79
2019-03-27T20:28:50.282Z,7.79
2019-03-27T20:31:20.196Z,7.78
2019-03-27T20:33:49.799Z,7.76
2019-03-27T20:36:21.849Z,7.75
2019-03-27T20:38:51.299Z,7.74
2019-03-27T20:41:21.139Z,7.74
2019-03-27T20:43:51.134Z,7.75
2019-03-27T20:46:26.358Z,7.76
2019-03-27T20:48:54.699Z,7.74
2019-03-27T20:51:27.808Z,7.73
2019-03-27T20:54:01.730Z,7.73
2019-03-27T20:56:31.934Z,7.72
2019-03-27T20:59:03.221Z,7.73
2019-03-27T21:01:33.096Z,7.73
2019-03-27T21:04:03.086Z,7.72
2019-03-27T21:06:33.665Z,7.72
2019-03-27T21:09:03.477Z,7.71
2019-03-27T21:11:33.052Z,7.72
2019-03-27T21:14:02.885Z,7.72
2019-03-27T21:16:32.417Z,7.67
2019-03-27T21:19:02.291Z,7.70
2019-03-27T21:21:32.136Z,7.71
2019-03-27T21:24:01.931Z,7.70
2019-03-27T21:26:31.748Z,7.70
2019-03-27T21:29:01.422Z,7.68
2019-03-27T21:31:30.859Z,7.67
2019-03-27T21:34:00.730Z,7.68
2019-03-27T21:36:30.172Z,7.69
2019-03-27T21:39:00.018Z,7.70
2019-03-27T21:41:30.194Z,7.68
2019-03-27T21:44:02.485Z,7.70
2019-03-27T21:46:32.316Z,7.69
2019-03-27T21:49:01.802Z,7.68
2019-03-27T21:51:31.617Z,7.67
2019-03-27T21:54:01.347Z,7.67
2019-03-27T21:56:31.749Z,7.67
2019-03-27T21:59:02.644Z,7.66
2019-03-27T22:01:32.298Z,7.66
2019-03-27T22:04:02.067Z,7.67
2019-03-27T22:06:31.512Z,7.67
2019-03-27T22:09:01.426Z,7.67
2019-03-27T22:11:30.949Z,7.67
2019-03-27T22:14:00.655Z,7.67
2019-03-27T22:16:30.380Z,7.67
2019-03-27T22:19:00.362Z,7.66
2019-03-27T22:21:29.845Z,7.66
2019-03-27T22:23:59.612Z,7.66
2019-03-27T22:26:29.154Z,7.66
2019-03-27T22:28:59.272Z,7.63
2019-03-27T22:31:29.111Z,7.63
2019-03-27T22:33:58.654Z,7.61
2019-03-27T22:36:28.154Z,7.63
2019-03-27T22:38:58.395Z,7.62
2019-03-27T22:41:28.717Z,7.62
2019-03-27T22:43:58.515Z,7.61
2019-03-27T22:46:28.188Z,7.63
2019-03-27T22:48:58.066Z,7.62
2019-03-27T22:51:27.880Z,7.62
2019-03-27T22:53:57.786Z,7.61
2019-03-27T22:56:28.126Z,7.61
2019-03-27T22:58:57.928Z,7.60
2019-03-27T23:01:31.467Z,7.60
2019-03-27T23:04:01.557Z,7.60
2019-03-27T23:06:31.287Z,7.59
2019-03-27T23:09:01.325Z,7.59
2019-03-27T23:11:31.093Z,7.59
2019-03-27T23:14:02.118Z,7.59
2019-03-27T23:16:33.824Z,7.59
2019-03-27T23:19:03.592Z,7.58
2019-03-27T23:21:33.067Z,7.58
2019-03-27T23:24:02.982Z,7.56
2019-03-27T23:26:33.714Z,7.57
2019-03-27T23:29:03.379Z,7.55
2019-03-27T23:31:33.037Z,7.55
2019-03-27T23:34:02.669Z,7.55
2019-03-27T23:36:32.433Z,7.54
2019-03-27T23:39:02.008Z,7.53
2019-03-27T23:41:31.982Z,7.54
2019-03-27T23:44:01.766Z,7.54
2019-03-27T23:46:31.629Z,7.54
2019-03-27T23:49:01.547Z,7.54
2019-03-27T23:51:31.101Z,7.56
2019-03-27T23:54:00.816Z,7.55
2019-03-27T23:56:30.514Z,7.53
2019-03-27T23:59:00.379Z,7.53
